Rome, Italy
Current Conditions -  °F | °C
As of 5:15 AM on Monday 26 Jan 2015 (Local Time) from LIRA Reporting Station
Scattered Clouds Scattered Clouds  
Wind Chill: 40°   Ceiling: Unl
Heat Index: 43°   Visibility: 6mi
Dew Point: 32°   Wind: 5mph
Humidity: 66%   Direction: 350°N
Pressure: 29.97"   Gusts: NA
Location:  41.9°N, 12.48°E
Report Text: LIRA 260415Z 35004KT 9999 FEW040 SCT070 06/00 Q1015
Loading
Personal Weather Stations






























Interactive Weather Map New forecast layout! Learn more

10-Day Weather Forecast

Advertisements
Track Severe Weather on mobile